X  Blizu METAR Podaci o vazduhoplovstvu     EFPO Pori Airport
Temperatura
-9°C Temperatura
-9°C Tačka Rose
100% Vlaga



Vetar
2 M/S
5 MPH
8 KM/H
4 KTS



130°
JI
Trenutna situacija

Nepoznat -padavine Nepoznat -padavine
Vazdušni pritisak 1018.92 (hPa) - 30.09 (inHg)
Vidljivost 3.1 (Milje) - 5 (km)
Aerodrom
Aerodromski kod. EFPO

Lokacija: Pori Airport
Udaljenost: 40 (km)

Metar:
EFPO 170150Z AUTO 13004KT 5000 FZUP OVC003 M09/M09 Q1019

Vreme: 17-01-2021 03:50 EET